createdAt,value
2022-09-06T00:00:26.722Z,77.46
2022-09-06T00:02:36.542Z,78.08
2022-09-06T00:04:39.215Z,78.61
2022-09-06T00:06:41.840Z,79.29
2022-09-06T00:08:45.978Z,79.38
2022-09-06T00:10:48.645Z,79.84
2022-09-06T00:12:51.276Z,79.83
2022-09-06T00:14:54.438Z,80.20
2022-09-06T00:16:57.064Z,80.13
2022-09-06T00:18:59.764Z,80.20
2022-09-06T00:21:03.865Z,80.63
2022-09-06T00:23:06.462Z,80.33
2022-09-06T00:25:09.575Z,80.28
2022-09-06T00:27:13.168Z,80.73
2022-09-06T00:29:15.827Z,80.62
2022-09-06T00:31:21.635Z,80.34
2022-09-06T00:33:25.003Z,80.46
2022-09-06T00:35:28.715Z,80.28
2022-09-06T00:37:31.367Z,80.07
2022-09-06T00:39:33.959Z,80.29
2022-09-06T00:41:36.798Z,80.29
2022-09-06T00:43:40.420Z,80.51
2022-09-06T00:45:43.122Z,79.90
2022-09-06T00:47:46.379Z,79.85
2022-09-06T00:49:54.047Z,79.52
2022-09-06T00:52:02.172Z,79.23
2022-09-06T00:54:06.788Z,79.54
2022-09-06T00:56:09.620Z,79.87
2022-09-06T00:58:13.182Z,79.77
2022-09-06T01:00:16.475Z,80.11
2022-09-06T01:02:20.265Z,79.82
2022-09-06T01:04:24.312Z,79.81
2022-09-06T01:06:32.646Z,80.05
2022-09-06T01:08:44.004Z,79.87
2022-09-06T01:11:16.352Z,79.69
2022-09-06T01:13:29.012Z,79.20
2022-09-06T01:15:56.253Z,78.97
2022-09-06T01:18:22.213Z,79.09
2022-09-06T01:20:33.907Z,78.57
2022-09-06T01:23:06.967Z,78.60
2022-09-06T01:25:28.190Z,78.40
2022-09-06T01:27:58.958Z,78.30
2022-09-06T01:30:10.435Z,77.66
2022-09-06T01:32:26.607Z,77.70
2022-09-06T01:34:45.131Z,77.75
2022-09-06T01:37:09.367Z,77.52
2022-09-06T01:39:23.503Z,77.47
2022-09-06T01:41:26.539Z,77.31
2022-09-06T01:43:37.494Z,77.05
2022-09-06T01:46:02.160Z,76.88
2022-09-06T01:48:21.201Z,77.11
2022-09-06T01:51:00.595Z,77.13
2022-09-06T01:53:21.432Z,76.94
2022-09-06T01:55:49.953Z,76.49
2022-09-06T01:57:58.968Z,76.16
2022-09-06T02:00:10.528Z,76.07
2022-09-06T02:02:48.792Z,75.62
2022-09-06T02:04:58.581Z,74.79
2022-09-06T02:07:08.982Z,74.67
2022-09-06T02:09:23.603Z,74.30
2022-09-06T02:11:29.567Z,73.93
2022-09-06T02:14:01.772Z,73.47
2022-09-06T02:16:08.740Z,73.85
2022-09-06T02:18:19.998Z,73.30
2022-09-06T02:20:31.135Z,72.88
2022-09-06T02:22:42.336Z,73.20
2022-09-06T02:24:47.761Z,73.43
2022-09-06T02:26:51.296Z,73.48
2022-09-06T02:28:54.442Z,73.84
2022-09-06T02:31:02.895Z,73.92
2022-09-06T02:33:11.426Z,74.18
2022-09-06T02:35:16.852Z,74.13
2022-09-06T02:37:19.894Z,74.41
2022-09-06T02:39:22.921Z,74.71
2022-09-06T02:41:26.690Z,74.41
2022-09-06T02:43:29.661Z,74.33
2022-09-06T02:45:32.735Z,74.12
2022-09-06T02:47:35.367Z,74.39
2022-09-06T02:49:38.083Z,74.65
2022-09-06T02:51:40.964Z,74.79
2022-09-06T02:53:43.970Z,74.93
2022-09-06T02:55:48.962Z,75.28
2022-09-06T02:57:52.281Z,75.23
2022-09-06T02:59:54.894Z,75.26
2022-09-06T03:01:57.823Z,75.24
2022-09-06T03:04:01.694Z,74.96
2022-09-06T03:06:04.460Z,75.27
2022-09-06T03:08:07.240Z,74.87
2022-09-06T03:10:10.103Z,74.75
2022-09-06T03:12:13.210Z,74.74
2022-09-06T03:14:17.253Z,74.69
2022-09-06T03:16:21.317Z,74.85
2022-09-06T03:18:25.239Z,74.26
2022-09-06T03:20:27.861Z,74.24
2022-09-06T03:22:31.029Z,74.27
2022-09-06T03:24:33.826Z,73.90
2022-09-06T03:26:36.454Z,73.91
2022-09-06T03:28:39.941Z,73.89
2022-09-06T03:30:45.515Z,73.97
2022-09-06T03:32:48.203Z,73.45
2022-09-06T03:34:50.861Z,72.99
2022-09-06T03:36:53.458Z,72.96
2022-09-06T03:38:56.062Z,72.02
2022-09-06T03:40:59.072Z,71.85
2022-09-06T03:43:01.662Z,71.38
2022-09-06T03:45:05.880Z,70.93
2022-09-06T03:47:08.751Z,70.52
2022-09-06T03:49:11.319Z,70.10
2022-09-06T03:51:13.933Z,69.92
2022-09-06T03:53:18.785Z,69.83
2022-09-06T03:55:21.383Z,70.06
2022-09-06T03:57:24.015Z,69.60
2022-09-06T03:59:26.745Z,68.95
2022-09-06T04:01:29.584Z,68.25
2022-09-06T04:03:33.099Z,67.67
2022-09-06T04:05:36.286Z,67.05
2022-09-06T04:07:39.226Z,66.36
2022-09-06T04:09:41.881Z,65.71
2022-09-06T04:11:45.197Z,65.05
2022-09-06T04:13:48.302Z,64.35
2022-09-06T04:15:51.311Z,63.82
2022-09-06T04:17:54.049Z,63.75
2022-09-06T04:19:56.755Z,63.54
2022-09-06T04:21:59.667Z,63.53
2022-09-06T04:24:02.952Z,63.40
2022-09-06T04:26:05.716Z,63.38
2022-09-06T04:28:08.399Z,63.45
2022-09-06T04:30:11.273Z,63.63
2022-09-06T04:32:14.084Z,63.72
2022-09-06T04:34:16.768Z,63.46
2022-09-06T04:36:19.490Z,63.51
2022-09-06T04:38:22.132Z,63.55
2022-09-06T04:40:24.871Z,64.11
2022-09-06T04:42:27.589Z,64.09
2022-09-06T04:44:30.327Z,64.01
2022-09-06T04:46:33.087Z,64.36
2022-09-06T04:48:35.753Z,64.29
2022-09-06T04:50:39.328Z,64.14
2022-09-06T04:52:41.855Z,61.92
2022-09-06T04:54:44.615Z,62.13
2022-09-06T04:56:47.393Z,62.03
2022-09-06T04:58:50.949Z,62.54
2022-09-06T05:00:54.054Z,61.81
2022-09-06T05:02:56.659Z,61.13
2022-09-06T05:04:59.321Z,61.41
2022-09-06T05:07:08.850Z,61.34
2022-09-06T05:09:11.728Z,61.51
2022-09-06T05:11:14.451Z,61.28
2022-09-06T05:13:17.051Z,61.15
2022-09-06T05:15:20.904Z,60.75
2022-09-06T05:17:23.719Z,60.66
2022-09-06T05:19:26.548Z,59.84
2022-09-06T05:21:29.343Z,60.27
2022-09-06T05:23:32.008Z,60.63
2022-09-06T05:25:34.608Z,61.19
2022-09-06T05:27:37.238Z,60.99
2022-09-06T05:29:39.984Z,61.44
2022-09-06T05:31:42.904Z,61.19
2022-09-06T05:33:45.503Z,61.26
2022-09-06T05:35:49.327Z,61.93
2022-09-06T05:37:51.883Z,62.90
2022-09-06T05:39:54.614Z,63.53
2022-09-06T05:41:57.667Z,64.07
2022-09-06T05:44:00.404Z,65.53
2022-09-06T05:46:03.653Z,65.55
2022-09-06T05:48:06.693Z,65.35
2022-09-06T05:50:10.251Z,65.52
2022-09-06T05:52:13.290Z,66.51
2022-09-06T05:54:15.966Z,67.11
2022-09-06T05:56:19.264Z,67.35
2022-09-06T05:58:21.921Z,66.83
2022-09-06T06:00:25.570Z,66.54
2022-09-06T06:02:28.244Z,65.35
2022-09-06T06:04:30.915Z,65.59
2022-09-06T06:06:34.917Z,65.74
2022-09-06T06:08:37.615Z,66.60
2022-09-06T06:10:42.919Z,66.48
2022-09-06T06:12:45.646Z,66.59
2022-09-06T06:14:48.759Z,65.55
2022-09-06T06:16:52.136Z,65.08
2022-09-06T06:18:55.100Z,64.27
2022-09-06T06:21:12.838Z,63.95
2022-09-06T06:23:16.239Z,63.80
2022-09-06T06:25:23.158Z,64.61
2022-09-06T06:27:25.742Z,65.92
2022-09-06T06:29:28.323Z,66.24
2022-09-06T06:31:32.609Z,66.63
2022-09-06T06:33:36.547Z,67.16
2022-09-06T06:35:40.221Z,67.59
2022-09-06T06:37:42.796Z,68.62
2022-09-06T06:39:45.552Z,69.71
2022-09-06T06:41:50.851Z,73.00
2022-09-06T06:43:58.853Z,77.43
2022-09-06T06:46:01.567Z,81.56
2022-09-06T06:48:04.253Z,85.06
2022-09-06T06:50:07.114Z,87.39
2022-09-06T06:52:09.758Z,90.19
2022-09-06T06:54:12.639Z,91.86
2022-09-06T06:56:19.337Z,92.90
2022-09-06T06:58:22.013Z,94.11
2022-09-06T07:00:28.137Z,96.00
2022-09-06T07:02:30.980Z,97.55
2022-09-06T07:04:33.692Z,98.63
2022-09-06T07:09:18.400Z,100.00
2022-09-06T07:11:24.308Z,100.00
2022-09-06T07:13:27.722Z,100.00
2022-09-06T07:15:30.654Z,100.00
2022-09-06T07:17:34.853Z,100.00
2022-09-06T07:22:04.373Z,100.00
2022-09-06T07:24:09.367Z,100.00
2022-09-06T07:26:19.581Z,100.00
2022-09-06T07:28:24.027Z,100.00
2022-09-06T07:30:26.800Z,100.00
2022-09-06T07:32:31.776Z,100.00
2022-09-06T07:34:38.425Z,100.00
2022-09-06T07:36:41.063Z,100.00
2022-09-06T07:38:43.757Z,100.00
2022-09-06T07:40:54.451Z,100.00
2022-09-06T07:43:00.617Z,100.00
2022-09-06T07:45:03.221Z,100.00
2022-09-06T07:49:34.757Z,100.00
2022-09-06T07:51:37.829Z,100.00
2022-09-06T07:53:42.491Z,100.00
2022-09-06T07:55:45.215Z,100.00
2022-09-06T07:57:47.897Z,100.00
2022-09-06T07:59:51.284Z,100.00
2022-09-06T08:01:54.006Z,100.00
2022-09-06T08:04:02.950Z,100.00
2022-09-06T08:10:36.054Z,100.00
2022-09-06T08:12:38.716Z,100.00
2022-09-06T08:14:41.275Z,100.00
2022-09-06T08:16:43.991Z,100.00
2022-09-06T08:18:51.760Z,100.00
2022-09-06T08:20:54.430Z,100.00
2022-09-06T08:22:57.521Z,99.93
2022-09-06T08:25:00.347Z,100.00
2022-09-06T08:27:03.950Z,97.10
2022-09-06T08:29:09.327Z,99.04
2022-09-06T08:31:14.383Z,100.00
2022-09-06T08:33:20.425Z,97.32
2022-09-06T08:35:23.059Z,99.01
2022-09-06T08:37:25.666Z,98.44
2022-09-06T08:39:28.401Z,92.33
2022-09-06T08:42:07.579Z,93.43
2022-09-06T08:46:58.452Z,93.53
2022-09-06T08:49:01.337Z,95.12
2022-09-06T08:51:06.938Z,93.42
2022-09-06T08:53:18.288Z,94.25
2022-09-06T08:55:33.639Z,93.58
2022-09-06T08:58:01.442Z,93.22
2022-09-06T09:00:11.803Z,94.01
2022-09-06T09:02:21.061Z,89.61
2022-09-06T09:04:26.943Z,84.80
2022-09-06T09:06:33.065Z,85.15
2022-09-06T09:08:53.468Z,85.62
2022-09-06T09:11:08.504Z,84.73
2022-09-06T09:13:29.458Z,82.42
2022-09-06T09:15:33.585Z,83.96
2022-09-06T09:17:39.501Z,81.99
2022-09-06T09:19:42.996Z,78.69
2022-09-06T09:21:46.516Z,72.73
2022-09-06T09:23:55.631Z,72.67
2022-09-06T09:26:06.358Z,76.51
2022-09-06T09:28:17.902Z,76.47
2022-09-06T09:32:51.792Z,75.56
2022-09-06T09:34:54.592Z,73.85
2022-09-06T09:39:51.011Z,72.96
2022-09-06T09:41:55.590Z,72.04
2022-09-06T09:44:05.240Z,71.12
2022-09-06T09:46:23.089Z,68.61
2022-09-06T09:48:27.934Z,69.26
2022-09-06T09:50:35.405Z,68.78
2022-09-06T09:52:44.049Z,69.29
2022-09-06T09:54:48.011Z,72.33
2022-09-06T09:56:55.804Z,68.91
2022-09-06T09:58:59.219Z,69.98
2022-09-06T10:01:23.169Z,73.06
2022-09-06T10:03:28.608Z,65.15
2022-09-06T10:05:32.028Z,72.19
2022-09-06T10:07:35.613Z,72.37
2022-09-06T10:09:41.762Z,71.23
2022-09-06T10:11:59.839Z,72.03
2022-09-06T10:14:29.837Z,72.41
2022-09-06T10:16:47.404Z,75.80
2022-09-06T10:18:53.087Z,80.65
2022-09-06T10:21:03.356Z,81.58
2022-09-06T10:23:11.259Z,83.67
2022-09-06T10:25:20.185Z,83.59
2022-09-06T10:27:29.154Z,83.93
2022-09-06T10:30:05.447Z,86.66
2022-09-06T10:32:13.892Z,89.14
2022-09-06T10:34:24.625Z,87.71
2022-09-06T10:36:40.385Z,87.52
2022-09-06T10:39:03.770Z,88.54
2022-09-06T10:41:25.663Z,89.78
2022-09-06T10:43:36.772Z,91.87
2022-09-06T10:45:47.344Z,94.56
2022-09-06T10:48:14.927Z,96.48
2022-09-06T10:50:18.259Z,96.92
2022-09-06T10:52:32.863Z,98.13
2022-09-06T10:54:41.163Z,98.31
2022-09-06T10:56:52.694Z,97.86
2022-09-06T11:01:44.599Z,96.83
2022-09-06T11:03:58.540Z,96.15
2022-09-06T11:06:09.431Z,96.45
2022-09-06T11:10:45.933Z,97.53
2022-09-06T11:12:56.116Z,97.92
2022-09-06T11:15:05.393Z,97.70
2022-09-06T11:17:14.201Z,97.17
2022-09-06T11:19:26.716Z,96.04
2022-09-06T11:22:10.444Z,95.22
2022-09-06T11:24:30.166Z,95.47
2022-09-06T11:27:11.466Z,95.12
2022-09-06T11:29:26.973Z,94.87
2022-09-06T11:34:26.905Z,92.36
2022-09-06T11:36:38.700Z,92.57
2022-09-06T11:38:42.654Z,85.10
2022-09-06T11:41:06.341Z,87.22
2022-09-06T11:43:35.337Z,88.56
2022-09-06T11:45:52.166Z,86.59
2022-09-06T11:47:56.052Z,88.75
2022-09-06T11:49:58.744Z,89.07
2022-09-06T11:52:01.758Z,88.25
2022-09-06T11:54:28.553Z,85.78
2022-09-06T11:56:36.976Z,88.40
2022-09-06T11:58:42.507Z,87.43
2022-09-06T12:00:47.137Z,87.11
2022-09-06T12:02:51.666Z,87.25
2022-09-06T12:05:07.320Z,86.53
2022-09-06T12:07:12.883Z,85.70
2022-09-06T12:09:32.596Z,81.96
2022-09-06T12:11:41.978Z,81.94
2022-09-06T12:13:56.798Z,80.32
2022-09-06T12:16:00.259Z,82.33
2022-09-06T12:18:03.070Z,83.01
2022-09-06T12:20:09.753Z,83.16
2022-09-06T12:22:31.342Z,80.48
2022-09-06T12:24:34.054Z,83.68
2022-09-06T12:26:55.816Z,82.77
2022-09-06T12:28:58.591Z,81.40
2022-09-06T12:31:02.256Z,85.56
2022-09-06T12:33:25.243Z,85.89
2022-09-06T12:37:59.566Z,84.40
2022-09-06T12:40:02.388Z,84.50
2022-09-06T12:42:11.399Z,84.07
2022-09-06T12:44:16.094Z,84.61
2022-09-06T12:46:19.402Z,83.84
2022-09-06T12:48:31.073Z,83.35
2022-09-06T12:50:33.590Z,79.02
2022-09-06T12:52:48.985Z,83.64
2022-09-06T12:54:51.622Z,83.91
2022-09-06T12:57:13.522Z,78.37
2022-09-06T12:59:17.858Z,79.19
2022-09-06T13:01:31.552Z,82.32
2022-09-06T13:03:54.176Z,79.23
2022-09-06T13:05:58.401Z,79.28
2022-09-06T13:08:03.922Z,77.55
2022-09-06T13:10:07.035Z,76.00
2022-09-06T13:12:33.998Z,73.65
2022-09-06T13:14:37.286Z,73.25
2022-09-06T13:16:48.966Z,71.70
2022-09-06T13:18:51.929Z,75.39
2022-09-06T13:21:08.396Z,71.41
2022-09-06T13:23:13.413Z,67.12
2022-09-06T13:25:26.779Z,66.30
2022-09-06T13:27:36.879Z,63.24
2022-09-06T13:29:39.671Z,66.79
2022-09-06T13:31:47.098Z,68.50
2022-09-06T13:33:57.356Z,66.34
2022-09-06T13:36:21.482Z,65.11
2022-09-06T13:38:32.597Z,68.36
2022-09-06T13:41:07.081Z,70.73
2022-09-06T13:43:12.118Z,71.90
2022-09-06T13:45:27.027Z,73.50
2022-09-06T13:47:30.176Z,73.46
2022-09-06T13:49:34.222Z,74.13
2022-09-06T13:51:39.458Z,75.36
2022-09-06T13:53:42.082Z,74.44
2022-09-06T13:55:44.871Z,75.15
2022-09-06T13:57:47.590Z,75.73
2022-09-06T13:59:50.385Z,76.72
2022-09-06T14:02:16.124Z,75.69
2022-09-06T14:04:21.717Z,76.64
2022-09-06T14:06:24.476Z,78.06
2022-09-06T14:08:43.794Z,80.48
2022-09-06T14:10:52.646Z,82.91
2022-09-06T14:12:55.346Z,83.62
2022-09-06T14:14:58.215Z,83.41
2022-09-06T14:17:01.467Z,83.94
2022-09-06T14:19:04.908Z,83.17
2022-09-06T14:21:07.920Z,83.63
2022-09-06T14:23:10.618Z,83.42
2022-09-06T14:25:13.739Z,83.50
2022-09-06T14:27:16.464Z,81.02
2022-09-06T14:29:19.255Z,83.17
2022-09-06T14:31:27.317Z,84.02
2022-09-06T14:33:31.541Z,82.84
2022-09-06T14:35:34.642Z,83.87
2022-09-06T14:37:37.958Z,84.41
2022-09-06T14:39:40.644Z,84.68
2022-09-06T14:41:43.388Z,86.13
2022-09-06T14:43:52.277Z,85.74
2022-09-06T14:45:55.037Z,86.31
2022-09-06T14:47:57.704Z,87.11
2022-09-06T14:50:01.134Z,86.57
2022-09-06T14:52:04.183Z,86.91
2022-09-06T14:54:10.582Z,86.36
2022-09-06T14:56:13.519Z,85.62
2022-09-06T14:58:16.181Z,81.00
2022-09-06T15:00:19.548Z,81.66
2022-09-06T15:02:22.308Z,82.35
2022-09-06T15:04:26.492Z,83.68
2022-09-06T15:06:31.265Z,83.27
2022-09-06T15:08:34.103Z,85.00
2022-09-06T15:10:37.195Z,84.69
2022-09-06T15:12:39.851Z,85.12
2022-09-06T15:14:43.241Z,85.81
2022-09-06T15:16:49.888Z,85.17
2022-09-06T15:18:56.290Z,86.95
2022-09-06T15:20:59.316Z,86.88
2022-09-06T15:23:24.326Z,88.75
2022-09-06T15:25:26.008Z,89.63
2022-09-06T15:27:29.654Z,89.91
2022-09-06T15:29:32.275Z,90.06
2022-09-06T15:31:35.281Z,91.48
2022-09-06T15:33:39.138Z,91.92
2022-09-06T15:35:43.397Z,90.90
2022-09-06T15:37:47.606Z,90.97
2022-09-06T15:39:50.276Z,91.76
2022-09-06T15:41:53.031Z,90.71
2022-09-06T15:43:58.817Z,90.70
2022-09-06T15:46:02.264Z,90.63
2022-09-06T15:48:04.920Z,91.22
2022-09-06T15:50:07.756Z,90.30
2022-09-06T15:52:10.942Z,90.83
2022-09-06T15:54:15.121Z,91.39
2022-09-06T15:56:18.991Z,90.74
2022-09-06T15:58:21.958Z,90.92
2022-09-06T16:00:24.829Z,91.96
2022-09-06T16:02:27.646Z,91.59
2022-09-06T16:04:30.408Z,91.10
2022-09-06T16:06:39.795Z,92.36
2022-09-06T16:08:43.214Z,92.49
2022-09-06T16:10:46.243Z,93.28
2022-09-06T16:12:52.042Z,93.81
2022-09-06T16:14:54.664Z,95.00
2022-09-06T16:16:57.639Z,95.87
2022-09-06T16:19:00.937Z,95.62
2022-09-06T16:21:15.153Z,96.16
2022-09-06T16:23:17.905Z,96.89
2022-09-06T16:25:20.669Z,97.79
2022-09-06T16:27:23.338Z,98.66
2022-09-06T16:29:26.450Z,98.88
2022-09-06T16:31:29.257Z,99.98
2022-09-06T16:33:33.890Z,100.00
2022-09-06T16:35:43.125Z,100.00
2022-09-06T16:37:45.780Z,100.00
2022-09-06T16:39:48.483Z,100.00
2022-09-06T16:41:51.132Z,100.00
2022-09-06T16:43:54.132Z,100.00
2022-09-06T16:46:03.049Z,100.00
2022-09-06T16:48:07.185Z,100.00
2022-09-06T16:50:10.033Z,100.00
2022-09-06T16:52:13.508Z,100.00
2022-09-06T16:54:17.135Z,100.00
2022-09-06T16:56:28.466Z,100.00
2022-09-06T16:58:31.377Z,100.00
2022-09-06T17:00:34.088Z,100.00
2022-09-06T17:02:36.795Z,100.00
2022-09-06T17:04:39.391Z,99.72
2022-09-06T17:06:44.790Z,100.00
2022-09-06T17:08:48.039Z,100.00
2022-09-06T17:10:50.702Z,100.00
2022-09-06T17:12:53.769Z,100.00
2022-09-06T17:14:56.542Z,100.00
2022-09-06T17:17:05.173Z,100.00
2022-09-06T17:19:09.201Z,100.00
2022-09-06T17:21:12.492Z,100.00
2022-09-06T17:23:19.207Z,100.00
2022-09-06T17:25:22.377Z,99.59
2022-09-06T17:27:25.051Z,99.23
2022-09-06T17:29:28.180Z,97.58
2022-09-06T17:31:31.080Z,96.69
2022-09-06T17:33:35.578Z,95.98
2022-09-06T17:35:38.184Z,95.07
2022-09-06T17:37:40.843Z,95.02
2022-09-06T17:39:43.538Z,95.68
2022-09-06T17:41:48.010Z,95.96
2022-09-06T17:43:51.829Z,96.09
2022-09-06T17:45:54.616Z,95.21
2022-09-06T17:47:57.401Z,96.81
2022-09-06T17:49:59.990Z,96.86
2022-09-06T17:52:02.880Z,96.37
2022-09-06T17:54:06.252Z,95.65
2022-09-06T17:56:14.456Z,95.92
2022-09-06T17:58:17.153Z,95.93
2022-09-06T18:00:19.894Z,95.47
2022-09-06T18:02:22.637Z,95.10
2022-09-06T18:04:25.365Z,94.85
2022-09-06T18:06:30.043Z,95.22
2022-09-06T18:08:32.734Z,95.31
2022-09-06T18:10:37.763Z,95.20
2022-09-06T18:12:42.675Z,93.85
2022-09-06T18:14:45.371Z,94.27
2022-09-06T18:16:52.375Z,94.41
2022-09-06T18:19:00.400Z,93.75
2022-09-06T18:21:04.780Z,94.13
2022-09-06T18:23:07.530Z,93.18
2022-09-06T18:25:10.332Z,93.18
2022-09-06T18:27:13.573Z,93.14
2022-09-06T18:29:18.592Z,93.63
2022-09-06T18:31:24.628Z,93.33
2022-09-06T18:33:28.019Z,92.57
2022-09-06T18:35:30.761Z,93.65
2022-09-06T18:37:36.813Z,93.34
2022-09-06T18:39:39.827Z,92.50
2022-09-06T18:42:01.074Z,92.17
2022-09-06T18:44:05.822Z,92.68
2022-09-06T18:46:13.322Z,90.46
2022-09-06T18:48:19.790Z,91.45
2022-09-06T18:50:22.526Z,91.34
2022-09-06T18:52:25.235Z,92.48
2022-09-06T18:54:28.052Z,91.93
2022-09-06T18:56:30.849Z,92.01
2022-09-06T18:58:33.757Z,91.53
2022-09-06T19:00:36.991Z,91.80
2022-09-06T19:02:39.701Z,92.08
2022-09-06T19:04:42.537Z,92.85
2022-09-06T19:06:45.362Z,93.49
2022-09-06T19:08:48.676Z,93.78
2022-09-06T19:11:03.485Z,94.19
2022-09-06T19:13:06.196Z,94.66
2022-09-06T19:15:09.379Z,94.62
2022-09-06T19:17:12.162Z,94.74
2022-09-06T19:19:14.973Z,95.53
2022-09-06T19:21:22.236Z,95.53
2022-09-06T19:23:25.584Z,95.29
2022-09-06T19:25:28.202Z,95.63
2022-09-06T19:27:30.923Z,95.43
2022-09-06T19:29:33.650Z,95.42
2022-09-06T19:31:38.277Z,95.67
2022-09-06T19:33:42.130Z,96.19
2022-09-06T19:36:01.182Z,96.67
2022-09-06T19:38:10.494Z,96.98
2022-09-06T19:40:13.340Z,97.32
2022-09-06T19:42:16.001Z,97.82
2022-09-06T19:44:20.870Z,98.58
2022-09-06T19:46:24.537Z,98.25
2022-09-06T19:48:28.822Z,98.75
2022-09-06T19:50:34.351Z,98.46
2022-09-06T19:52:37.090Z,98.63
2022-09-06T19:54:39.896Z,98.96
2022-09-06T19:56:43.853Z,99.76
2022-09-06T19:58:46.968Z,99.23
2022-09-06T20:00:58.582Z,99.42
2022-09-06T20:03:01.222Z,100.00
2022-09-06T20:05:04.012Z,99.95
2022-09-06T20:07:07.168Z,99.84
2022-09-06T20:09:11.016Z,99.92
2022-09-06T20:11:13.792Z,99.76
2022-09-06T20:13:16.440Z,99.81
2022-09-06T20:15:19.654Z,99.95
2022-09-06T20:17:33.771Z,99.83
2022-09-06T20:19:36.842Z,99.84
2022-09-06T20:21:39.622Z,100.00
2022-09-06T20:23:42.414Z,99.73
2022-09-06T20:25:45.288Z,98.96
2022-09-06T20:27:48.042Z,98.26
2022-09-06T20:29:50.783Z,98.65
2022-09-06T20:31:53.449Z,97.98
2022-09-06T20:33:58.264Z,97.39
2022-09-06T20:36:03.369Z,96.79
2022-09-06T20:38:06.219Z,96.14
2022-09-06T20:40:09.633Z,96.11
2022-09-06T20:42:13.673Z,95.77
2022-09-06T20:44:16.326Z,95.48
2022-09-06T20:46:21.233Z,95.79
2022-09-06T20:48:26.294Z,96.67
2022-09-06T20:50:29.042Z,95.72
2022-09-06T20:52:34.257Z,95.56
2022-09-06T20:54:37.297Z,95.65
2022-09-06T20:56:42.056Z,95.74
2022-09-06T20:58:49.811Z,95.89
2022-09-06T21:00:52.898Z,95.63
2022-09-06T21:02:55.702Z,95.67
2022-09-06T21:05:00.207Z,95.29
2022-09-06T21:07:03.632Z,95.31
2022-09-06T21:09:10.553Z,96.13
2022-09-06T21:11:13.521Z,96.20
2022-09-06T21:13:16.402Z,96.34
2022-09-06T21:15:19.028Z,96.63
2022-09-06T21:17:21.648Z,96.35
2022-09-06T21:19:25.559Z,96.96
2022-09-06T21:21:29.908Z,96.34
2022-09-06T21:23:35.147Z,96.10
2022-09-06T21:25:37.936Z,95.95
2022-09-06T21:27:40.701Z,95.57
2022-09-06T21:29:43.479Z,95.59
2022-09-06T21:31:46.213Z,96.58
2022-09-06T21:33:54.011Z,97.06
2022-09-06T21:36:07.912Z,97.10
2022-09-06T21:38:10.688Z,97.48
2022-09-06T21:40:13.457Z,97.23
2022-09-06T21:42:18.647Z,97.68
2022-09-06T21:44:21.626Z,97.50
2022-09-06T21:46:31.712Z,97.25
2022-09-06T21:48:49.081Z,96.90
2022-09-06T21:50:51.985Z,97.06
2022-09-06T21:52:55.213Z,97.34
2022-09-06T21:54:57.947Z,97.31
2022-09-06T21:57:00.548Z,97.58
2022-09-06T21:59:04.068Z,97.66
2022-09-06T22:01:07.134Z,98.03
2022-09-06T22:03:10.250Z,98.34
2022-09-06T22:05:12.855Z,98.58
2022-09-06T22:07:15.544Z,98.47
2022-09-06T22:09:18.306Z,98.87
2022-09-06T22:11:32.381Z,98.64
2022-09-06T22:13:35.352Z,98.94
2022-09-06T22:15:38.849Z,98.96
2022-09-06T22:17:41.617Z,98.63
2022-09-06T22:19:44.323Z,98.66
2022-09-06T22:21:47.093Z,98.34
2022-09-06T22:23:54.094Z,98.62
2022-09-06T22:26:09.103Z,98.62
2022-09-06T22:28:11.801Z,98.67
2022-09-06T22:30:14.742Z,98.80
2022-09-06T22:32:17.993Z,99.22
2022-09-06T22:34:20.699Z,99.48
2022-09-06T22:36:24.365Z,99.12
2022-09-06T22:38:31.251Z,99.11
2022-09-06T22:40:34.058Z,98.95
2022-09-06T22:42:36.702Z,98.96
2022-09-06T22:44:39.399Z,98.93
2022-09-06T22:46:42.147Z,98.93
2022-09-06T22:48:45.000Z,99.16
2022-09-06T22:50:47.788Z,99.44
2022-09-06T22:52:50.499Z,99.41
2022-09-06T22:54:53.205Z,99.33
2022-09-06T22:56:55.975Z,99.32
2022-09-06T22:58:59.513Z,99.70
2022-09-06T23:01:13.647Z,99.96
2022-09-06T23:03:16.547Z,99.80
2022-09-06T23:05:19.628Z,99.98
2022-09-06T23:07:22.334Z,99.67
2022-09-06T23:09:25.079Z,99.60
2022-09-06T23:11:28.120Z,99.96
2022-09-06T23:13:31.199Z,99.49
2022-09-06T23:15:38.495Z,99.02
2022-09-06T23:17:41.185Z,98.59
2022-09-06T23:19:43.882Z,98.61
2022-09-06T23:21:46.714Z,98.44
2022-09-06T23:23:51.537Z,98.48
2022-09-06T23:25:54.418Z,98.42
2022-09-06T23:27:59.796Z,98.48
2022-09-06T23:30:03.796Z,97.88
2022-09-06T23:32:07.245Z,97.81
2022-09-06T23:34:09.857Z,98.07
2022-09-06T23:36:14.932Z,98.26
2022-09-06T23:38:17.668Z,97.42
2022-09-06T23:40:20.760Z,97.86
2022-09-06T23:42:23.545Z,98.07
2022-09-06T23:44:26.238Z,98.15
2022-09-06T23:46:29.762Z,97.85
2022-09-06T23:48:32.826Z,97.87
2022-09-06T23:50:35.480Z,97.78
2022-09-06T23:52:38.168Z,97.86
2022-09-06T23:54:40.832Z,97.71
2022-09-06T23:56:43.833Z,97.43
2022-09-06T23:58:46.507Z,97.92
